Time;durP1;ratioP1;P1;durP2;ratioP2;P2;SDS_P1;SDS_P2;PMS_P1;PMS_P2;Temp;Humidity;BMP_temperature;BMP_pressure;BME280_temperature;BME280_humidity;BME280_pressure;Samples;Min_cycle;Max_cycle;Signal;HPM_P1;HPM_P2
2022/11/15 00:02:15;;;;;;;6.10;5.60;;;;;;;7.94;92.27;100036.53;5059254;28;20206;-83
2022/11/15 00:04:43;;;;;;;6.07;5.67;;;;;;;7.94;92.46;100039.13;5059160;28;20205;-83
2022/11/15 00:07:10;;;;;;;6.40;5.90;;;;;;;7.85;92.65;100048.78;5059837;28;20712;-83
2022/11/15 00:09:36;;;;;;;6.50;5.90;;;;;;;7.81;92.11;100044.50;5060102;28;20291;-83
2022/11/15 00:12:02;;;;;;;7.10;6.40;;;;;;;7.75;92.42;100037.69;5059710;28;20212;-83
2022/11/15 00:14:29;;;;;;;6.33;5.83;;;;;;;7.68;92.61;100033.44;5059565;28;20627;-82
2022/11/15 00:16:55;;;;;;;6.87;6.27;;;;;;;7.64;nan;100018.78;5059924;28;20236;-83
2022/11/15 00:19:22;;;;;;;7.17;6.47;;;;;;;7.67;93.87;100008.34;5059798;28;20212;-82
2022/11/15 00:21:49;;;;;;;7.00;6.50;;;;;;;7.72;94.08;99990.97;5058332;28;20210;-83
2022/11/15 00:24:16;;;;;;;6.53;6.03;;;;;;;7.72;93.81;99975.38;5060172;28;20209;-82
2022/11/15 00:26:42;;;;;;;6.80;6.20;;;;;;;7.67;93.93;99977.16;5059687;28;20201;-82
2022/11/15 00:29:09;;;;;;;7.60;6.53;;;;;;;7.68;95.19;99956.38;5059887;28;20212;-83
2022/11/15 00:31:35;;;;;;;6.43;5.93;;;;;;;7.68;94.81;99942.53;5059270;28;20221;-82
2022/11/15 00:34:02;;;;;;;7.40;6.73;;;;;;;7.63;95.41;99933.94;5058414;28;20212;-80
2022/11/15 00:36:28;;;;;;;6.63;6.13;;;;;;;7.55;95.86;99918.47;5057159;28;20236;-80
2022/11/15 00:38:56;;;;;;;7.70;6.53;;;;;;;7.55;97.30;99910.66;5057106;28;20206;-82
2022/11/15 00:41:22;;;;;;;7.77;7.07;;;;;;;7.60;99.02;99843.94;5056571;28;20237;-80
2022/11/15 00:43:49;;;;;;;6.53;6.03;;;;;;;7.56;99.25;99837.09;5057334;28;20205;-82
2022/11/15 00:46:15;;;;;;;7.03;6.43;;;;;;;7.61;99.93;99818.81;5056931;28;20206;-81
2022/11/15 00:48:41;;;;;;;7.87;7.07;;;;;;;7.60;100.00;99810.19;5056558;28;20202;-81
2022/11/15 00:51:08;;;;;;;8.13;7.33;;;;;;;7.62;100.00;99794.56;5056632;28;20619;-82
2022/11/15 00:53:35;;;;;;;9.10;8.23;;;;;;;7.88;100.00;99762.94;5056893;28;20201;-81
2022/11/15 00:56:02;;;;;;;9.10;7.50;;;;;;;7.86;100.00;99773.34;5056412;28;20631;-82
2022/11/15 00:58:29;;;;;;;8.80;8.03;;;;;;;8.15;100.00;99756.34;5055722;28;20216;-82
2022/11/15 01:00:55;;;;;;;9.80;8.87;;;;;;;8.26;100.00;99756.97;5056730;28;20225;-83
2022/11/15 01:03:22;;;;;;;13.97;7.10;;;;;;;8.32;100.00;99767.25;5056800;28;20205;-83
2022/11/15 01:05:48;;;;;;;9.03;8.23;;;;;;;8.48;100.00;99761.75;5057343;28;20224;-84
2022/11/15 01:08:15;;;;;;;7.97;7.20;;;;;;;8.59;100.00;99771.94;5056800;28;20217;-84
2022/11/15 01:10:42;;;;;;;7.80;7.20;;;;;;;8.74;100.00;99769.88;5056249;28;20248;-81
2022/11/15 01:13:10;;;;;;;8.07;7.33;;;;;;;8.85;100.00;99776.56;5056921;28;20212;-81
2022/11/15 01:15:41;;;;;;;8.33;7.63;;;;;;;8.97;100.00;99775.44;5057233;28;20228;-82
2022/11/15 01:18:07;;;;;;;7.47;6.87;;;;;;;9.06;100.00;99786.50;5056958;28;20642;-82
2022/11/15 01:20:34;;;;;;;8.03;6.87;;;;;;;9.15;100.00;99793.22;5056615;28;20276;-81
2022/11/15 01:23:00;;;;;;;8.17;7.47;;;;;;;9.24;100.00;99794.78;5056788;28;20641;-83
2022/11/15 01:25:26;;;;;;;8.30;7.50;;;;;;;9.30;100.00;99802.44;5056937;28;20672;-82
2022/11/15 01:27:53;;;;;;;9.00;7.50;;;;;;;9.31;99.76;99810.19;5057026;28;20695;-80
2022/11/15 01:30:21;;;;;;;8.20;7.40;;;;;;;9.27;99.40;99821.56;5056625;28;20226;-83
2022/11/15 01:32:47;;;;;;;7.47;6.77;;;;;;;9.26;99.56;99813.81;5056357;28;20202;-81
2022/11/15 01:35:14;;;;;;;8.23;7.43;;;;;;;9.26;99.88;99806.84;5057346;28;20255;-83
2022/11/15 01:37:40;;;;;;;7.27;6.73;;;;;;;9.25;99.65;99794.69;5056879;28;20216;-83
2022/11/15 01:40:07;;;;;;;8.53;7.77;;;;;;;9.31;99.95;99804.97;5056293;28;20237;-82
2022/11/15 01:42:34;;;;;;;8.43;7.73;;;;;;;9.33;99.39;99802.34;5057126;28;20347;-82
2022/11/15 01:45:00;;;;;;;8.13;7.43;;;;;;;9.38;99.71;99799.66;5056877;28;20560;-84
2022/11/15 01:47:32;;;;;;;8.10;7.33;;;;;;;9.37;99.56;99800.53;5056498;28;20205;-83
2022/11/15 01:50:03;;;;;;;7.77;7.13;;;;;;;9.37;99.29;99806.56;5056931;28;20789;-83
2022/11/15 01:52:32;;;;;;;8.97;8.17;;;;;;;9.37;99.54;99803.13;5056606;28;20210;-84
2022/11/15 01:55:06;;;;;;;7.93;7.23;;;;;;;9.39;99.44;99806.56;5056747;28;20197;-83
2022/11/15 01:57:32;;;;;;;8.70;7.77;;;;;;;9.37;99.50;99816.16;5056718;28;20233;-83
2022/11/15 02:00:01;;;;;;;8.23;7.53;;;;;;;9.41;100.00;99797.78;5056253;28;20233;-83
2022/11/15 02:02:29;;;;;;;8.33;7.53;;;;;;;9.48;100.00;99788.09;5057610;28;20210;-83
2022/11/15 02:04:55;;;;;;;8.00;7.30;;;;;;;9.46;99.80;99792.50;5057245;28;20205;-81
2022/11/15 02:07:23;;;;;;;8.37;7.43;;;;;;;9.48;99.95;99785.50;5057323;28;20206;-83
2022/11/15 02:09:51;;;;;;;8.30;7.63;;;;;;;9.48;100.00;99790.72;5056745;28;20584;-83
2022/11/15 02:12:20;;;;;;;8.57;7.67;;;;;;;9.48;100.00;99786.34;5056863;28;20209;-82
2022/11/15 02:14:51;;;;;;;8.10;7.37;;;;;;;9.58;100.00;99773.94;5057265;28;20213;-83
2022/11/15 02:17:41;;;;;;;8.63;7.67;;;;;;;9.62;100.00;99764.28;5057698;28;20225;-84
2022/11/15 02:20:50;;;;;;;8.87;7.20;;;;;;;9.62;100.00;99756.47;5061932;28;20278;-80
2022/11/15 02:23:59;;;;;;;8.53;7.60;;;;;;;9.66;100.00;99765.94;5050772;28;20216;-81
2022/11/15 02:26:49;;;;;;;10.60;7.17;;;;;;;9.70;99.81;99765.78;5055219;28;20205;-83
2022/11/15 02:29:31;;;;;;;8.17;7.47;;;;;;;9.75;99.45;99776.09;5055486;28;20266;-82
2022/11/15 02:32:07;;;;;;;7.90;7.20;;;;;;;9.75;99.35;99776.09;5055423;28;20205;-82
2022/11/15 02:34:42;;;;;;;9.27;7.00;;;;;;;9.73;99.34;99781.38;5055683;28;20208;-81
2022/11/15 02:37:17;;;;;;;7.73;7.13;;;;;;;9.76;99.50;99783.03;5055270;28;20229;-83
2022/11/15 02:39:51;;;;;;;7.53;6.83;;;;;;;9.84;99.37;99778.47;5055019;28;20283;-81
2022/11/15 02:45:14;;;;;;;8.27;7.57;;;;;;;9.73;99.76;99780.50;5046984;28;20204;-82
2022/11/15 02:47:45;;;;;;;7.63;6.87;;;;;;;9.75;99.75;99768.28;5059243;28;20201;-79
2022/11/15 02:50:15;;;;;;;8.30;7.50;;;;;;;9.79;99.86;99775.16;5059033;28;20572;-81
2022/11/15 02:52:46;;;;;;;8.27;7.47;;;;;;;9.81;99.97;99765.53;5059687;28;20208;-83
2022/11/15 02:55:28;;;;;;;7.97;7.20;;;;;;;9.92;99.87;99770.44;5059005;28;20212;-80
2022/11/15 02:58:07;;;;;;;7.30;6.60;;;;;;;9.94;99.61;99766.03;5059571;28;20230;-82
2022/11/15 03:00:37;;;;;;;7.97;7.27;;;;;;;9.96;98.86;99768.63;5058977;28;20247;-83
2022/11/15 03:03:27;;;;;;;7.47;6.60;;;;;;;9.98;99.17;99772.03;5059670;28;20211;-83
2022/11/15 03:06:04;;;;;;;8.37;6.73;;;;;;;10.03;98.88;99776.22;5058975;28;20588;-81
2022/11/15 03:08:38;;;;;;;6.70;6.10;;;;;;;10.04;98.58;99785.75;5058798;28;20698;-83
2022/11/15 03:11:10;;;;;;;7.10;6.40;;;;;;;10.12;98.26;99798.56;5058578;28;20641;-83
2022/11/15 03:13:44;;;;;;;7.03;6.43;;;;;;;10.19;97.88;99807.97;5059036;28;20205;-81
2022/11/15 03:16:17;;;;;;;6.17;5.67;;;;;;;10.28;97.21;99825.94;5059245;28;20223;-79
2022/11/15 03:18:50;;;;;;;7.73;6.07;;;;;;;10.31;96.63;99838.09;5059524;28;20215;-80
2022/11/15 03:21:20;;;;;;;6.37;5.87;;;;;;;10.29;96.30;99843.31;5058839;28;20234;-82
2022/11/15 03:23:49;;;;;;;7.87;5.73;;;;;;;10.33;96.19;99851.94;5058805;28;20251;-80
2022/11/15 03:26:20;;;;;;;6.50;5.90;;;;;;;10.37;95.96;99860.56;5058761;28;20203;-83
2022/11/15 03:28:51;;;;;;;5.83;5.27;;;;;;;10.36;95.54;99866.66;5058284;28;20210;-81
2022/11/15 03:34:12;;;;;;;5.80;5.20;;;;;;;10.22;95.46;99874.81;5058096;28;20252;-83
2022/11/15 03:36:39;;;;;;;6.63;6.03;;;;;;;10.18;95.49;99866.22;5058136;28;20715;-82
2022/11/15 03:39:08;;;;;;;7.27;5.30;;;;;;;10.10;96.06;99862.97;5058886;28;20620;-82
2022/11/15 03:41:41;;;;;;;6.20;5.67;;;;;;;10.05;96.25;99851.78;5057740;28;20242;-82
2022/11/15 03:44:16;;;;;;;5.50;5.10;;;;;;;10.00;96.23;99853.66;5058470;28;20206;-82
2022/11/15 03:46:48;;;;;;;6.60;6.00;;;;;;;10.03;96.42;99851.84;5058399;28;20248;-81
2022/11/15 03:49:21;;;;;;;6.17;5.10;;;;;;;10.02;96.00;99854.50;5058388;28;20233;-82
2022/11/15 03:51:48;;;;;;;5.03;4.53;;;;;;;9.98;95.97;99869.34;5057946;28;20206;-82
2022/11/15 03:54:14;;;;;;;5.03;4.60;;;;;;;10.06;95.84;99870.00;5057830;28;20210;-82
2022/11/15 03:56:41;;;;;;;5.53;5.03;;;;;;;10.04;95.56;99868.34;5058030;28;20263;-80
2022/11/15 03:59:07;;;;;;;5.30;4.70;;;;;;;10.01;95.35;99874.50;5058103;28;20206;-83
2022/11/15 04:01:33;;;;;;;5.93;4.80;;;;;;;10.10;95.48;99876.00;5057909;28;20231;-83
2022/11/15 04:04:00;;;;;;;5.07;4.67;;;;;;;10.09;94.81;99882.97;5058235;28;20580;-83
2022/11/15 04:06:28;;;;;;;5.13;4.63;;;;;;;10.16;94.47;99886.28;5057775;28;20257;-83
2022/11/15 04:08:54;;;;;;;6.50;5.10;;;;;;;10.11;94.09;99894.22;5058162;28;20668;-82
2022/11/15 04:11:21;;;;;;;5.57;4.67;;;;;;;10.14;94.15;99896.72;5057409;28;20226;-82
2022/11/15 04:13:47;;;;;;;5.63;5.23;;;;;;;10.12;93.98;99908.94;5057916;28;20205;-82
2022/11/15 04:16:13;;;;;;;5.60;4.60;;;;;;;10.18;93.96;99901.88;5058095;28;20201;-82
2022/11/15 04:18:40;;;;;;;5.20;4.80;;;;;;;10.18;93.81;99909.72;5057968;28;20210;-82
2022/11/15 04:24:12;;;;;;;4.97;4.47;;;;;;;10.23;93.30;99919.13;5037060;28;20205;-83
2022/11/15 04:26:39;;;;;;;4.83;4.33;;;;;;;10.12;93.43;99924.59;5057950;28;20609;-83
2022/11/15 04:31:49;;;;;;;4.77;4.37;;;;;;;10.07;93.50;99928.25;5057634;28;20208;-83
2022/11/15 04:34:16;;;;;;;5.17;4.07;;;;;;;10.01;93.49;99925.75;5057604;28;20664;-81
2022/11/15 04:39:28;;;;;;;7.03;4.90;;;;;;;9.97;93.46;99930.22;5057751;28;20287;-83
2022/11/15 04:41:54;;;;;;;5.23;4.83;;;;;;;9.90;93.70;99926.91;5057054;28;20203;-81
2022/11/15 04:44:20;;;;;;;4.33;3.93;;;;;;;9.91;93.55;99912.97;5058392;28;20208;-82
2022/11/15 04:46:47;;;;;;;4.43;4.10;;;;;;;9.82;93.41;99912.34;5058330;28;20201;-83
2022/11/15 04:49:13;;;;;;;4.53;4.13;;;;;;;9.78;93.72;99911.56;5058364;28;20575;-83
2022/11/15 04:51:40;;;;;;;4.40;4.10;;;;;;;9.78;93.89;99911.56;5057504;28;20229;-83
2022/11/15 04:54:06;;;;;;;4.37;4.07;;;;;;;9.76;93.47;99910.75;5057670;28;20212;-82
2022/11/15 04:56:34;;;;;;;4.97;4.57;;;;;;;9.75;93.19;99911.63;5057399;28;20723;-83
2022/11/15 04:59:01;;;;;;;4.53;3.97;;;;;;;9.68;92.96;99920.50;5057291;28;20695;-83
2022/11/15 05:01:27;;;;;;;4.97;4.47;;;;;;;9.63;92.88;99924.94;5058202;28;20606;-83
2022/11/15 05:06:38;;;;;;;4.27;4.00;;;;;;;9.57;92.84;99931.16;5059475;28;20652;-83
2022/11/15 05:09:04;;;;;;;4.00;3.70;;;;;;;9.51;92.58;99939.09;5059069;28;20211;-82
2022/11/15 05:11:31;;;;;;;4.10;3.50;;;;;;;9.47;92.70;99940.91;5058736;28;20232;-82
2022/11/15 05:13:59;;;;;;;4.50;3.70;;;;;;;9.39;93.11;99942.00;5060001;28;20212;-82
2022/11/15 05:16:25;;;;;;;5.97;5.17;;;;;;;9.32;94.06;99910.03;5059323;28;20202;-83
2022/11/15 05:18:52;;;;;;;3.93;3.63;;;;;;;9.30;94.57;99899.63;5060261;28;20241;-83
2022/11/15 05:21:19;;;;;;;4.90;4.43;;;;;;;9.25;95.79;99862.41;5068687;28;20233;-83
2022/11/15 05:23:45;;;;;;;5.13;4.10;;;;;;;9.25;95.62;99851.16;5069934;28;20674;-81
2022/11/15 05:26:12;;;;;;;4.47;4.17;;;;;;;9.23;95.36;99851.19;5074773;28;20206;-82
2022/11/15 05:28:39;;;;;;;4.10;3.70;;;;;;;9.24;95.06;99859.88;5074261;28;20213;-82
2022/11/15 05:31:08;;;;;;;4.53;4.23;;;;;;;9.22;94.74;99867.72;5074124;28;20217;-81
2022/11/15 05:33:37;;;;;;;4.43;4.13;;;;;;;9.14;95.30;99857.47;5072685;28;20212;-81
2022/11/15 05:36:08;;;;;;;4.37;3.97;;;;;;;9.09;95.73;99848.03;5062854;28;20206;-84
2022/11/15 05:38:35;;;;;;;4.73;4.30;;;;;;;9.10;95.56;99849.75;5057453;28;20712;-83
2022/11/15 05:41:02;;;;;;;4.50;4.10;;;;;;;9.08;95.34;99852.41;5058519;28;20241;-83
2022/11/15 05:43:33;;;;;;;4.43;3.67;;;;;;;9.08;95.27;99855.00;5057851;28;20215;-83
2022/11/15 05:46:00;;;;;;;7.90;4.23;;;;;;;9.06;95.55;99850.72;5057397;28;20205;-83
2022/11/15 05:48:28;;;;;;;6.97;4.20;;;;;;;9.02;95.94;99847.31;5057922;28;20218;-84
2022/11/15 05:50:56;;;;;;;4.20;3.90;;;;;;;8.98;96.15;99835.28;5057245;28;20232;-83
2022/11/15 05:53:25;;;;;;;4.13;3.83;;;;;;;8.94;96.25;99831.03;5058328;28;20208;-81
2022/11/15 05:55:52;;;;;;;4.40;3.93;;;;;;;8.93;96.73;99832.75;5058981;28;20205;-84
2022/11/15 05:58:20;;;;;;;4.53;4.20;;;;;;;8.98;97.11;99822.25;5060251;28;20245;-83
2022/11/15 06:00:47;;;;;;;4.53;4.13;;;;;;;8.97;96.96;99825.72;5056900;28;20236;-82
2022/11/15 06:03:14;;;;;;;5.00;4.20;;;;;;;8.98;96.94;99819.66;5054060;28;20215;-80
2022/11/15 06:05:42;;;;;;;5.23;3.90;;;;;;;8.89;97.26;99822.44;5054521;28;20210;-80
2022/11/15 06:08:08;;;;;;;4.07;3.80;;;;;;;8.90;97.11;99813.75;5054120;28;20201;-81
2022/11/15 06:10:34;;;;;;;4.33;4.03;;;;;;;8.90;97.01;99805.94;5053643;28;20233;-81
2022/11/15 06:13:02;;;;;;;4.63;4.33;;;;;;;8.94;96.77;99815.41;5053602;28;20209;-80
2022/11/15 06:15:29;;;;;;;4.53;4.13;;;;;;;8.83;96.73;99820.00;5054151;28;20202;-82
2022/11/15 06:17:58;;;;;;;4.20;3.80;;;;;;;8.85;96.32;99826.84;5054019;28;20225;-80
2022/11/15 06:20:24;;;;;;;3.83;3.47;;;;;;;8.84;96.20;99835.56;5054280;28;20222;-80
2022/11/15 06:22:57;;;;;;;4.77;4.00;;;;;;;8.82;96.10;99855.56;5053294;28;20696;-81
2022/11/15 06:25:24;;;;;;;3.80;3.50;;;;;;;8.79;95.74;99873.00;5054125;28;20205;-80
2022/11/15 06:27:52;;;;;;;3.97;3.60;;;;;;;8.79;95.32;99878.19;5054424;28;20208;-78
2022/11/15 06:30:18;;;;;;;4.43;4.03;;;;;;;8.79;95.11;99894.66;5054254;28;20225;-80
2022/11/15 06:32:44;;;;;;;3.67;3.40;;;;;;;8.79;95.24;99894.66;5054689;28;20209;-81
2022/11/15 06:35:11;;;;;;;4.43;4.13;;;;;;;8.75;95.36;99896.47;5054175;28;20218;-81
2022/11/15 06:37:37;;;;;;;4.57;4.27;;;;;;;8.78;95.04;99905.09;5053624;28;20228;-83
2022/11/15 06:40:07;;;;;;;4.33;3.97;;;;;;;8.78;94.95;99905.97;5053400;28;20237;-81
2022/11/15 06:42:33;;;;;;;5.67;3.73;;;;;;;8.78;95.04;99905.09;5054781;28;20209;-82
2022/11/15 06:45:00;;;;;;;4.87;4.17;;;;;;;8.79;95.44;99905.06;5055210;28;20209;-80
2022/11/15 06:47:27;;;;;;;4.67;4.37;;;;;;;8.78;95.60;99890.34;5054723;28;20222;-82
2022/11/15 06:49:53;;;;;;;4.77;4.30;;;;;;;8.75;96.82;99874.78;5054341;28;20217;-79
2022/11/15 06:52:19;;;;;;;4.63;4.23;;;;;;;8.76;97.28;99850.50;5057132;28;20668;-80
2022/11/15 06:54:46;;;;;;;4.93;4.53;;;;;;;8.73;97.87;99834.94;5057237;28;20205;-81
2022/11/15 06:57:14;;;;;;;5.10;4.70;;;;;;;8.71;98.59;99821.94;5055376;28;20221;-82
2022/11/15 06:59:40;;;;;;;5.60;5.10;;;;;;;8.70;99.39;99807.25;5057873;28;20224;-81
2022/11/15 07:02:07;;;;;;;6.23;5.20;;;;;;;8.73;99.95;99794.16;5056068;28;20198;-82
2022/11/15 07:04:35;;;;;;;5.53;5.03;;;;;;;8.79;100.00;99795.78;5055057;28;20198;-81
2022/11/15 07:07:02;;;;;;;5.70;5.30;;;;;;;8.82;100.00;99787.91;5053541;28;20219;-83
2022/11/15 07:09:28;;;;;;;5.83;5.33;;;;;;;8.87;100.00;99780.00;5054545;28;20247;-83
2022/11/15 07:11:55;;;;;;;5.50;5.10;;;;;;;8.88;100.00;99776.47;5054787;28;20201;-81
2022/11/15 07:14:22;;;;;;;5.43;4.90;;;;;;;8.90;100.00;99778.19;5056649;28;20206;-81
2022/11/15 07:16:49;;;;;;;4.47;4.17;;;;;;;8.97;100.00;99778.88;5056739;28;20674;-80
2022/11/15 07:19:15;;;;;;;6.80;4.87;;;;;;;8.95;100.00;99778.06;5053813;28;20204;-80
2022/11/15 07:21:42;;;;;;;5.10;4.70;;;;;;;8.97;100.00;99784.09;5054409;28;20213;-80
2022/11/15 07:24:08;;;;;;;5.27;4.87;;;;;;;8.98;100.00;99800.56;5055659;28;20216;-82
2022/11/15 07:26:35;;;;;;;9.67;4.90;;;;;;;8.98;99.93;99814.44;5060566;28;20198;-81
2022/11/15 07:29:01;;;;;;;5.03;4.63;;;;;;;9.02;99.76;99807.41;5060414;28;20206;-80
2022/11/15 07:31:29;;;;;;;4.77;4.37;;;;;;;9.00;99.39;99815.28;5057161;28;20213;-80
2022/11/15 07:33:56;;;;;;;5.73;4.50;;;;;;;8.97;98.99;99823.13;5057141;28;20206;-82
2022/11/15 07:36:22;;;;;;;6.47;5.00;;;;;;;8.95;99.09;99820.56;5058544;28;20197;-80
2022/11/15 07:38:48;;;;;;;5.03;4.63;;;;;;;8.94;99.34;99818.88;5057829;28;20727;-80
2022/11/15 07:41:15;;;;;;;5.37;4.90;;;;;;;8.90;99.10;99821.53;5057768;28;20241;-81
2022/11/15 07:43:41;;;;;;;5.00;4.60;;;;;;;8.83;99.92;99813.03;5056718;28;20208;-82
2022/11/15 07:46:09;;;;;;;4.77;4.27;;;;;;;8.81;100.00;99800.94;5060036;28;20202;-80
2022/11/15 07:48:39;;;;;;;5.10;4.63;;;;;;;8.79;100.00;99792.31;5057208;28;20671;-79
2022/11/15 07:51:06;;;;;;;5.03;4.60;;;;;;;8.77;100.00;99787.13;5060526;28;20272;-81
2022/11/15 07:53:32;;;;;;;4.80;4.40;;;;;;;8.77;100.00;99773.28;5056093;28;20201;-80
2022/11/15 07:55:59;;;;;;;5.00;4.60;;;;;;;8.76;100.00;99767.22;5059325;28;20204;-81
2022/11/15 07:58:25;;;;;;;4.60;4.20;;;;;;;8.73;100.00;99765.53;5061816;28;20224;-80
2022/11/15 08:00:52;;;;;;;5.00;4.60;;;;;;;8.73;100.00;99757.72;5061567;28;20221;-80
2022/11/15 08:03:19;;;;;;;5.10;4.70;;;;;;;8.81;100.00;99764.50;5060926;28;20204;-81
2022/11/15 08:05:51;;;;;;;4.80;4.40;;;;;;;8.85;100.00;99767.00;5060795;28;20205;-82
2022/11/15 08:08:18;;;;;;;5.23;4.73;;;;;;;8.91;100.00;99766.00;5062991;28;20679;-81
2022/11/15 08:10:44;;;;;;;4.53;4.13;;;;;;;9.00;100.00;99773.63;5059811;28;20250;-80
2022/11/15 08:13:12;;;;;;;4.80;4.13;;;;;;;8.95;100.00;99778.06;5061594;28;20198;-81
2022/11/15 08:15:39;;;;;;;4.73;4.40;;;;;;;8.92;100.00;99776.41;5060156;28;20687;-81
2022/11/15 08:18:07;;;;;;;4.50;4.10;;;;;;;8.93;100.00;99777.25;5056293;28;20220;-81
2022/11/15 08:20:34;;;;;;;5.57;4.97;;;;;;;8.91;100.00;99771.22;5055759;28;20220;-80
2022/11/15 08:23:04;;;;;;;4.57;4.17;;;;;;;8.92;100.00;99765.13;5057374;28;20676;-81
2022/11/15 08:25:32;;;;;;;5.07;4.50;;;;;;;8.91;100.00;99773.81;5055301;28;20204;-81
2022/11/15 08:28:00;;;;;;;4.73;4.40;;;;;;;8.85;100.00;99763.56;5053451;28;20205;-79
2022/11/15 08:30:26;;;;;;;4.80;4.30;;;;;;;8.89;100.00;99760.84;5057891;28;20261;-81
2022/11/15 08:32:54;;;;;;;5.43;4.63;;;;;;;8.87;100.00;99754.81;5057155;28;20245;-81
2022/11/15 08:35:21;;;;;;;4.80;4.40;;;;;;;8.93;100.00;99749.47;5056669;28;20202;-80
2022/11/15 08:37:48;;;;;;;4.47;4.00;;;;;;;8.95;100.00;99752.88;5059239;28;20232;-80
2022/11/15 08:40:17;;;;;;;4.60;4.20;;;;;;;9.03;100.00;99749.25;5057946;28;20229;-80
2022/11/15 08:42:47;;;;;;;9.63;4.10;;;;;;;9.04;100.00;99743.13;5056185;28;20197;-81
2022/11/15 08:45:13;;;;;;;4.07;3.77;;;;;;;9.20;100.00;99747.09;5057461;28;20198;-81
2022/11/15 08:47:40;;;;;;;5.30;4.43;;;;;;;9.32;100.00;99746.78;5058834;28;20660;-81
2022/11/15 08:50:07;;;;;;;4.20;3.90;;;;;;;9.44;100.00;99765.63;5058193;28;20229;-80
2022/11/15 08:52:34;;;;;;;5.13;4.67;;;;;;;9.61;100.00;99767.78;5058270;28;20197;-80
2022/11/15 08:55:00;;;;;;;4.30;3.87;;;;;;;9.93;98.61;99801.69;5059579;28;20202;-79
2022/11/15 08:57:30;;;;;;;4.37;3.97;;;;;;;10.11;97.10;99836.00;5059272;28;20197;-81
2022/11/15 08:59:57;;;;;;;4.07;3.77;;;;;;;10.28;96.30;99866.81;5057749;28;20256;-81
2022/11/15 09:02:24;;;;;;;4.07;3.77;;;;;;;10.34;95.71;99880.59;5058441;28;20203;-80
2022/11/15 09:04:50;;;;;;;3.20;2.90;;;;;;;10.41;95.37;99885.66;5056614;28;20209;-81
2022/11/15 09:07:17;;;;;;;4.07;3.30;;;;;;;10.51;93.93;99921.03;5053266;28;20201;-80
2022/11/15 09:09:43;;;;;;;4.93;4.43;;;;;;;10.59;93.59;99937.34;5056100;28;20210;-79
2022/11/15 09:12:10;;;;;;;3.50;3.20;;;;;;;10.65;93.03;99958.06;5056424;28;20226;-79
2022/11/15 09:14:38;;;;;;;3.87;3.40;;;;;;;10.82;91.45;100004.59;5055992;28;20198;-78
2022/11/15 09:17:08;;;;;;;4.10;3.67;;;;;;;10.87;91.63;100018.38;5055179;28;20696;-80
2022/11/15 09:19:34;;;;;;;3.60;3.30;;;;;;;10.81;93.98;99986.38;5055721;28;20304;-80
2022/11/15 09:22:01;;;;;;;3.33;3.03;;;;;;;10.79;93.85;99972.50;5056155;28;20202;-81
2022/11/15 09:24:27;;;;;;;3.23;3.03;;;;;;;10.75;94.27;99947.38;5056677;28;20208;-80
2022/11/15 09:26:53;;;;;;;3.33;3.10;;;;;;;10.65;95.75;99920.66;5056433;28;20668;-80
2022/11/15 09:29:20;;;;;;;3.57;3.27;;;;;;;10.55;96.85;99888.75;5058841;28;20193;-80
2022/11/15 09:31:48;;;;;;;4.27;3.87;;;;;;;10.58;95.94;99895.63;5056916;28;20209;-80
2022/11/15 09:34:14;;;;;;;3.60;3.30;;;;;;;10.68;95.86;99891.84;5057391;28;20266;-81
2022/11/15 09:36:41;;;;;;;4.40;3.43;;;;;;;10.67;96.51;99880.56;5057447;28;20198;-79
2022/11/15 09:39:07;;;;;;;3.97;3.60;;;;;;;10.72;95.96;99873.47;5056580;28;20225;-80
2022/11/15 09:41:56;;;;;;;3.50;3.20;;;;;;;10.73;96.11;99876.94;5055956;28;20226;-79
2022/11/15 09:44:49;;;;;;;3.93;3.00;;;;;;;10.62;97.70;99842.44;5054810;28;20632;-80
2022/11/15 09:47:38;;;;;;;3.83;3.47;;;;;;;10.63;97.97;99815.44;5051628;28;20668;-80
2022/11/15 09:50:11;;;;;;;3.83;3.53;;;;;;;10.65;95.47;99864.09;5053496;28;20224;-81
2022/11/15 09:52:40;;;;;;;3.73;3.43;;;;;;;10.72;94.56;99898.69;5053176;28;20205;-78
2022/11/15 09:55:11;;;;;;;3.70;3.40;;;;;;;10.80;94.43;99914.16;5056052;28;20194;-79
2022/11/15 09:57:45;;;;;;;3.10;2.90;;;;;;;10.94;92.49;99948.53;5054216;28;20285;-80
2022/11/15 10:00:18;;;;;;;3.47;3.17;;;;;;;11.01;92.28;99984.03;5055532;28;20231;-79
2022/11/15 10:02:58;;;;;;;3.40;3.20;;;;;;;11.07;92.91;99968.19;5056596;28;20213;-80
2022/11/15 10:05:27;;;;;;;3.30;3.10;;;;;;;11.08;93.73;99945.53;5054146;28;20697;-79
2022/11/15 10:07:59;;;;;;;3.90;3.30;;;;;;;11.04;94.27;99939.56;5056210;28;20202;-80
2022/11/15 10:10:30;;;;;;;3.23;3.03;;;;;;;11.04;92.40;99959.59;5055516;28;20216;-81
2022/11/15 10:12:57;;;;;;;3.57;3.07;;;;;;;11.11;91.89;99979.41;5053914;28;20662;-80
2022/11/15 10:15:24;;;;;;;4.70;3.77;;;;;;;11.20;90.82;100007.03;5055212;28;20228;-79
2022/11/15 10:18:14;;;;;;;3.43;2.93;;;;;;;11.26;90.77;100009.50;5054871;28;20203;-81
2022/11/15 10:20:48;;;;;;;3.30;3.10;;;;;;;11.27;88.86;100040.78;5051625;28;20225;-79
2022/11/15 10:23:17;;;;;;;3.73;3.43;;;;;;;11.34;88.66;100072.84;5056731;28;20196;-80
2022/11/15 10:25:44;;;;;;;3.97;3.63;;;;;;;11.36;89.59;100071.03;5056084;28;20214;-79
2022/11/15 10:28:15;;;;;;;3.40;3.10;;;;;;;11.40;89.37;100064.81;5056356;28;20809;-79
2022/11/15 10:30:43;;;;;;;3.70;3.50;;;;;;;11.40;90.17;100043.06;5053886;28;20221;-79
2022/11/15 10:33:20;;;;;;;3.27;2.90;;;;;;;11.49;88.08;100077.59;5056088;28;20203;-83
2022/11/15 10:35:47;;;;;;;3.20;3.00;;;;;;;11.52;89.93;100056.63;5054411;28;20229;-80
2022/11/15 10:38:13;;;;;;;3.87;3.17;;;;;;;11.58;89.60;100039.06;5053630;28;20243;-80
2022/11/15 10:40:41;;;;;;;3.33;3.03;;;;;;;11.59;88.98;100062.50;5052710;28;20249;-81
2022/11/15 10:43:16;;;;;;;3.47;2.90;;;;;;;11.72;86.19;100097.03;5053294;28;20200;-80
2022/11/15 10:45:44;;;;;;;4.87;2.90;;;;;;;11.88;85.37;100147.13;5051646;28;20201;-81
2022/11/15 10:48:26;;;;;;;2.93;2.73;;;;;;;12.03;85.82;100157.16;5053183;28;20191;-80
2022/11/15 10:50:54;;;;;;;4.93;2.93;;;;;;;12.10;87.21;100140.38;5049934;28;20225;-80
2022/11/15 10:53:25;;;;;;;3.33;3.07;;;;;;;12.19;86.18;100117.44;5053405;28;20668;-77
2022/11/15 10:55:55;;;;;;;3.27;3.07;;;;;;;12.27;87.63;100105.00;5054429;28;20208;-80
2022/11/15 10:58:29;;;;;;;4.83;3.57;;;;;;;12.34;85.47;100121.34;5053034;28;20229;-80
2022/11/15 11:00:56;;;;;;;3.60;3.13;;;;;;;12.38;85.21;100143.91;5054873;28;20703;-80
2022/11/15 11:03:30;;;;;;;3.47;3.13;;;;;;;12.37;84.23;100182.31;5054919;28;20739;-81
2022/11/15 11:06:09;;;;;;;3.87;2.87;;;;;;;12.39;84.50;100169.16;5055637;28;20193;-81
2022/11/15 11:08:36;;;;;;;3.23;3.03;;;;;;;12.43;84.85;100170.81;5058631;28;20280;-82
2022/11/15 11:11:04;;;;;;;3.33;2.90;;;;;;;12.41;84.82;100151.69;5059042;28;20252;-80
2022/11/15 11:13:34;;;;;;;3.53;3.17;;;;;;;12.41;86.03;100135.97;5059233;28;20194;-80
2022/11/15 11:16:23;;;;;;;4.83;3.40;;;;;;;12.61;88.56;100049.78;5057395;28;20209;-80
2022/11/15 11:19:02;;;;;;;3.40;3.10;;;;;;;12.70;88.59;100017.19;5057922;28;20221;-81
2022/11/15 11:21:42;;;;;;;3.23;3.03;;;;;;;12.69;87.10;100025.94;5058812;28;20228;-80
2022/11/15 11:24:15;;;;;;;3.87;3.40;;;;;;;12.73;85.91;100058.97;5059177;28;20202;-80
2022/11/15 11:26:46;;;;;;;3.27;3.07;;;;;;;12.81;86.07;100075.28;5057628;28;20202;-81
2022/11/15 11:29:33;;;;;;;3.93;2.83;;;;;;;12.79;85.97;100092.81;5059883;28;20209;-81
2022/11/15 11:32:08;;;;;;;2.90;2.70;;;;;;;12.81;86.06;100079.69;5055775;28;20677;-80
2022/11/15 11:34:48;;;;;;;3.43;3.13;;;;;;;12.77;84.63;100109.50;5059558;28;20201;-81
2022/11/15 11:37:21;;;;;;;2.83;2.57;;;;;;;12.78;85.30;100103.34;5059329;28;20247;-80
2022/11/15 11:40:00;;;;;;;4.97;3.23;;;;;;;12.77;84.75;100106.88;5059045;28;20240;-80
2022/11/15 11:42:35;;;;;;;3.60;3.30;;;;;;;12.98;89.44;100022.28;5059530;28;20575;-81
2022/11/15 11:45:15;;;;;;;3.67;3.37;;;;;;;13.09;89.00;99972.97;5058369;28;20198;-80
2022/11/15 11:47:49;;;;;;;3.00;2.70;;;;;;;13.09;86.96;100022.78;5058255;28;20206;-80
2022/11/15 11:50:20;;;;;;;3.40;3.10;;;;;;;13.02;84.83;100073.69;5059748;28;20253;-79
2022/11/15 11:52:57;;;;;;;3.27;2.50;;;;;;;13.00;83.81;100112.22;5052793;28;20229;-80
2022/11/15 11:55:29;;;;;;;4.13;2.80;;;;;;;12.90;83.30;100143.09;5051569;28;20237;-81
2022/11/15 11:58:03;;;;;;;3.23;2.93;;;;;;;12.87;83.14;100142.34;5051643;28;20214;-81
2022/11/15 12:00:35;;;;;;;3.60;3.30;;;;;;;12.85;83.85;100149.38;5050542;28;20263;-81
2022/11/15 12:03:10;;;;;;;3.87;3.20;;;;;;;12.93;84.38;100120.31;5051730;28;20234;-78